createdAt,value
2024-01-12T00:01:51.441Z,2.20
2024-01-12T00:04:18.314Z,2.72
2024-01-12T00:06:47.184Z,2.40
2024-01-12T00:09:14.290Z,2.83
2024-01-12T00:11:41.034Z,2.72
2024-01-12T00:14:07.721Z,3.35
2024-01-12T00:16:34.361Z,3.42
2024-01-12T00:19:01.060Z,3.92
2024-01-12T00:21:27.779Z,2.83
2024-01-12T00:23:54.844Z,3.25
2024-01-12T00:26:21.758Z,3.35
2024-01-12T00:28:48.803Z,3.40
2024-01-12T00:31:15.883Z,2.60
2024-01-12T00:33:42.819Z,3.03
2024-01-12T00:36:09.671Z,2.20
2024-01-12T00:38:36.437Z,1.73
2024-01-12T00:41:04.231Z,2.15
2024-01-12T00:43:32.139Z,2.45
2024-01-12T00:45:58.924Z,1.75
2024-01-12T00:48:25.884Z,2.22
2024-01-12T00:50:52.750Z,2.30
2024-01-12T00:53:19.913Z,2.08
2024-01-12T00:55:46.590Z,2.63
2024-01-12T00:58:13.405Z,1.73
2024-01-12T01:00:40.092Z,2.92
2024-01-12T01:03:07.328Z,3.25
2024-01-12T01:05:34.960Z,1.92
2024-01-12T01:08:01.756Z,2.60
2024-01-12T01:10:28.520Z,2.70
2024-01-12T01:12:55.208Z,2.72
2024-01-12T01:15:21.941Z,3.50
2024-01-12T01:17:48.897Z,3.58
2024-01-12T01:20:17.423Z,2.33
2024-01-12T01:22:44.143Z,2.97
2024-01-12T01:25:11.868Z,3.28
2024-01-12T01:27:38.592Z,1.50
2024-01-12T01:30:05.847Z,2.15
2024-01-12T01:32:33.356Z,4.25
2024-01-12T01:35:00.326Z,2.60
2024-01-12T01:37:27.160Z,3.00
2024-01-12T01:39:53.989Z,3.08
2024-01-12T01:42:20.716Z,2.17
2024-01-12T01:44:47.523Z,2.33
2024-01-12T01:47:16.071Z,2.30
2024-01-12T01:49:42.888Z,2.30
2024-01-12T01:52:10.871Z,2.80
2024-01-12T01:54:38.069Z,2.65
2024-01-12T01:57:06.611Z,3.22
2024-01-12T01:59:36.372Z,2.75
2024-01-12T02:02:04.558Z,3.22
2024-01-12T02:04:31.513Z,2.53
2024-01-12T02:06:58.604Z,3.03
2024-01-12T02:09:25.578Z,3.85
2024-01-12T02:11:52.443Z,3.25
2024-01-12T02:14:19.299Z,3.22
2024-01-12T02:16:46.009Z,3.13
2024-01-12T02:19:12.764Z,3.33
2024-01-12T02:21:39.519Z,2.30
2024-01-12T02:24:06.314Z,2.78
2024-01-12T02:26:33.140Z,2.38
2024-01-12T02:29:01.754Z,3.20
2024-01-12T02:31:29.508Z,3.50
2024-01-12T02:33:56.241Z,4.05
2024-01-12T02:36:27.492Z,3.65
2024-01-12T02:38:55.910Z,4.32
2024-01-12T02:41:22.807Z,2.90
2024-01-12T02:43:49.686Z,1.92
2024-01-12T02:46:16.483Z,4.35
2024-01-12T02:48:43.244Z,1.98
2024-01-12T02:51:10.014Z,2.83
2024-01-12T02:53:36.731Z,2.90
2024-01-12T02:56:03.618Z,1.90
2024-01-12T02:58:30.331Z,2.13
2024-01-12T03:00:57.027Z,2.15
2024-01-12T03:03:23.946Z,3.10
2024-01-12T03:05:50.797Z,3.45
2024-01-12T03:08:17.822Z,1.90
2024-01-12T03:10:44.701Z,1.33
2024-01-12T03:13:11.521Z,1.88
2024-01-12T03:15:38.190Z,2.35
2024-01-12T03:18:05.549Z,2.72
2024-01-12T03:20:32.457Z,2.45
2024-01-12T03:22:59.367Z,0.82
2024-01-12T03:25:26.051Z,2.33
2024-01-12T03:27:52.766Z,1.90
2024-01-12T03:30:19.696Z,1.83
2024-01-12T03:32:46.472Z,1.45
2024-01-12T03:35:13.842Z,1.27
2024-01-12T03:37:40.539Z,2.15
2024-01-12T03:40:07.962Z,1.50
2024-01-12T03:42:34.782Z,1.85
2024-01-12T03:45:01.599Z,2.00
2024-01-12T03:47:28.367Z,1.95
2024-01-12T03:49:55.067Z,1.77
2024-01-12T03:52:21.728Z,1.83
2024-01-12T03:54:48.416Z,1.70
2024-01-12T03:57:15.143Z,1.45
2024-01-12T03:59:42.148Z,1.98
2024-01-12T04:02:08.937Z,1.63
2024-01-12T04:04:35.620Z,1.60
2024-01-12T04:07:02.506Z,1.88
2024-01-12T04:09:29.435Z,1.38
2024-01-12T04:11:56.192Z,2.22
2024-01-12T04:14:22.950Z,2.10
2024-01-12T04:16:49.638Z,1.90
2024-01-12T04:19:16.537Z,1.65
2024-01-12T04:21:43.368Z,1.88
2024-01-12T04:24:10.256Z,1.77
2024-01-12T04:26:37.086Z,1.73
2024-01-12T04:29:03.965Z,1.48
2024-01-12T04:31:30.726Z,1.70
2024-01-12T04:33:57.490Z,0.73
2024-01-12T04:36:24.724Z,1.52
2024-01-12T04:38:51.506Z,1.73
2024-01-12T04:41:18.306Z,1.33
2024-01-12T04:43:45.047Z,1.20
2024-01-12T04:46:11.754Z,2.15
2024-01-12T04:48:38.558Z,1.25
2024-01-12T04:51:05.936Z,1.13
2024-01-12T04:53:32.774Z,1.67
2024-01-12T04:55:59.502Z,1.50
2024-01-12T04:58:26.343Z,1.85
2024-01-12T05:00:53.104Z,1.50
2024-01-12T05:03:19.921Z,1.50
2024-01-12T05:05:46.888Z,1.23
2024-01-12T05:08:13.597Z,1.25
2024-01-12T05:10:40.285Z,1.90
2024-01-12T05:13:06.978Z,1.33
2024-01-12T05:15:33.679Z,1.88
2024-01-12T05:18:01.135Z,1.58
2024-01-12T05:20:28.574Z,1.02
2024-01-12T05:22:55.351Z,1.23
2024-01-12T05:25:22.038Z,1.83
2024-01-12T05:27:48.758Z,1.33
2024-01-12T05:30:15.582Z,1.27
2024-01-12T05:32:42.349Z,2.08
2024-01-12T05:35:09.229Z,2.22
2024-01-12T05:37:35.905Z,1.48
2024-01-12T05:40:02.656Z,2.15
2024-01-12T05:42:29.380Z,2.53
2024-01-12T05:44:56.095Z,1.33
2024-01-12T05:47:22.881Z,2.13
2024-01-12T05:49:49.662Z,1.10
2024-01-12T05:52:19.247Z,1.25
2024-01-12T05:54:45.940Z,1.42
2024-01-12T05:57:12.674Z,1.15
2024-01-12T05:59:39.454Z,1.70
2024-01-12T06:02:06.300Z,2.28
2024-01-12T06:04:33.060Z,1.08
2024-01-12T06:06:59.739Z,1.95
2024-01-12T06:09:26.354Z,1.33
2024-01-12T06:11:53.093Z,2.30
2024-01-12T06:14:19.895Z,0.85
2024-01-12T06:16:46.559Z,1.55
2024-01-12T06:19:13.524Z,1.23
2024-01-12T06:21:41.982Z,1.30
2024-01-12T06:24:10.031Z,1.63
2024-01-12T06:26:37.146Z,1.40
2024-01-12T06:29:03.911Z,1.35
2024-01-12T06:31:32.240Z,1.10
2024-01-12T06:33:59.119Z,1.70
2024-01-12T06:36:25.883Z,1.10
2024-01-12T06:38:56.070Z,0.95
2024-01-12T06:43:49.917Z,1.10
2024-01-12T06:46:16.772Z,1.13
2024-01-12T06:48:43.755Z,1.17
2024-01-12T06:51:10.650Z,1.02
2024-01-12T06:53:37.501Z,1.20
2024-01-12T06:56:05.156Z,1.10
2024-01-12T06:58:31.913Z,1.08
2024-01-12T07:01:00.038Z,0.77
2024-01-12T07:03:27.307Z,1.02
2024-01-12T07:05:54.890Z,1.42
2024-01-12T07:08:22.518Z,0.75
2024-01-12T07:10:49.268Z,0.80
2024-01-12T07:13:16.057Z,1.55
2024-01-12T07:15:42.788Z,1.30
2024-01-12T07:18:09.551Z,1.38
2024-01-12T07:20:36.362Z,1.13
2024-01-12T07:23:03.065Z,1.73
2024-01-12T07:25:30.528Z,1.55
2024-01-12T07:27:57.231Z,1.23
2024-01-12T07:30:23.945Z,1.00
2024-01-12T07:32:51.065Z,1.50
2024-01-12T07:35:17.932Z,1.33
2024-01-12T07:37:45.455Z,1.45
2024-01-12T07:40:13.581Z,1.13
2024-01-12T07:42:40.686Z,1.52
2024-01-12T07:45:07.735Z,1.40
2024-01-12T07:47:34.668Z,1.08
2024-01-12T07:50:01.624Z,1.75
2024-01-12T07:52:28.363Z,1.45
2024-01-12T07:54:55.145Z,1.38
2024-01-12T07:57:21.898Z,1.48
2024-01-12T07:59:48.735Z,1.00
2024-01-12T08:02:16.457Z,1.05
2024-01-12T08:04:43.264Z,1.13
2024-01-12T08:07:10.257Z,1.48
2024-01-12T08:09:37.118Z,0.50
2024-01-12T08:12:04.349Z,1.27
2024-01-12T08:14:31.180Z,0.90
2024-01-12T08:16:57.938Z,1.85
2024-01-12T08:19:24.698Z,1.80
2024-01-12T08:21:55.946Z,0.95
2024-01-12T08:24:23.838Z,1.55
2024-01-12T08:26:50.807Z,1.35
2024-01-12T08:29:18.546Z,1.70
2024-01-12T08:31:45.339Z,1.73
2024-01-12T08:34:12.266Z,0.90
2024-01-12T08:36:39.108Z,0.65
2024-01-12T08:39:06.256Z,1.00
2024-01-12T08:41:33.266Z,1.55
2024-01-12T08:44:00.597Z,1.02
2024-01-12T08:46:27.264Z,1.45
2024-01-12T08:48:56.302Z,1.15
2024-01-12T08:51:25.016Z,1.42
2024-01-12T08:53:52.650Z,1.55
2024-01-12T08:56:20.053Z,1.48
2024-01-12T08:58:47.197Z,1.65
2024-01-12T09:01:16.713Z,1.42
2024-01-12T09:03:43.797Z,1.10
2024-01-12T09:06:12.262Z,1.33
2024-01-12T09:08:39.476Z,1.33
2024-01-12T09:11:06.547Z,1.40
2024-01-12T09:13:33.384Z,1.25
2024-01-12T09:16:00.007Z,1.38
2024-01-12T09:18:27.422Z,2.10
2024-01-12T09:20:54.443Z,1.42
2024-01-12T09:23:21.787Z,1.50
2024-01-12T09:25:52.163Z,1.20
2024-01-12T09:28:19.354Z,1.25
2024-01-12T09:30:47.654Z,1.23
2024-01-12T09:33:15.952Z,2.00
2024-01-12T09:35:42.792Z,1.77
2024-01-12T09:38:09.702Z,1.27
2024-01-12T09:40:36.928Z,1.73
2024-01-12T09:43:11.343Z,0.82
2024-01-12T09:45:45.891Z,1.30
2024-01-12T09:48:13.480Z,0.95
2024-01-12T09:50:42.421Z,2.08
2024-01-12T09:53:11.859Z,1.70
2024-01-12T09:55:38.731Z,1.13
2024-01-12T09:58:08.677Z,0.90
2024-01-12T10:00:38.780Z,1.83
2024-01-12T10:03:07.788Z,2.10
2024-01-12T10:05:38.498Z,1.83
2024-01-12T10:08:10.192Z,1.40
2024-01-12T10:10:39.753Z,1.42
2024-01-12T10:13:06.817Z,1.10
2024-01-12T10:15:43.733Z,2.17
2024-01-12T10:18:11.020Z,1.42
2024-01-12T10:20:39.050Z,1.30
2024-01-12T10:23:06.560Z,2.20
2024-01-12T10:25:34.771Z,1.88
2024-01-12T10:28:01.618Z,2.50
2024-01-12T10:30:31.281Z,1.77
2024-01-12T10:32:58.225Z,2.35
2024-01-12T10:35:25.847Z,1.58
2024-01-12T10:37:57.746Z,2.25
2024-01-12T10:40:25.175Z,2.08
2024-01-12T10:42:56.260Z,1.17
2024-01-12T10:45:24.327Z,1.67
2024-01-12T10:48:09.082Z,2.45
2024-01-12T10:50:43.772Z,2.13
2024-01-12T10:53:26.450Z,1.60
2024-01-12T10:56:01.015Z,2.42
2024-01-12T10:58:30.224Z,1.20
2024-01-12T11:00:57.975Z,2.17
2024-01-12T11:03:27.049Z,2.72
2024-01-12T11:05:56.340Z,1.35
2024-01-12T11:08:28.571Z,1.42
2024-01-12T11:10:58.348Z,1.77
2024-01-12T11:13:25.585Z,1.83
2024-01-12T11:15:54.317Z,1.13
2024-01-12T11:18:21.751Z,1.85
2024-01-12T11:20:48.809Z,1.77
2024-01-12T11:23:15.781Z,1.65
2024-01-12T11:25:44.888Z,1.33
2024-01-12T11:28:15.484Z,1.55
2024-01-12T11:30:42.991Z,1.67
2024-01-12T11:33:10.274Z,1.42
2024-01-12T11:35:38.611Z,1.50
2024-01-12T11:38:10.554Z,1.00
2024-01-12T11:40:38.905Z,1.25
2024-01-12T11:43:06.897Z,1.42
2024-01-12T11:45:34.538Z,1.33
2024-01-12T11:48:05.292Z,1.95
2024-01-12T11:50:32.417Z,2.08
2024-01-12T11:53:01.774Z,1.67
2024-01-12T11:55:29.060Z,1.05
2024-01-12T11:57:56.534Z,2.03
2024-01-12T12:00:26.561Z,1.23
2024-01-12T12:02:56.882Z,2.83
2024-01-12T12:05:26.190Z,2.95
2024-01-12T12:07:53.449Z,1.90
2024-01-12T12:10:26.703Z,2.25
2024-01-12T12:12:59.982Z,1.98
2024-01-12T12:15:26.767Z,2.28
2024-01-12T12:17:55.192Z,1.83
2024-01-12T12:20:22.335Z,2.45
2024-01-12T12:22:50.880Z,2.25
2024-01-12T12:25:17.692Z,1.25
2024-01-12T12:27:48.142Z,2.00
2024-01-12T12:30:19.371Z,1.77
2024-01-12T12:32:47.683Z,1.90
2024-01-12T12:35:22.054Z,1.83
2024-01-12T12:37:49.921Z,1.75
2024-01-12T12:40:21.143Z,1.90
2024-01-12T12:42:52.170Z,1.77
2024-01-12T12:45:21.788Z,2.00
2024-01-12T12:47:49.723Z,2.20
2024-01-12T12:50:21.118Z,1.92
2024-01-12T12:52:51.007Z,2.20
2024-01-12T12:55:28.844Z,2.00
2024-01-12T12:57:56.690Z,1.40
2024-01-12T13:00:24.153Z,2.33
2024-01-12T13:02:51.606Z,2.35
2024-01-12T13:05:20.407Z,2.45
2024-01-12T13:07:50.873Z,2.47
2024-01-12T13:10:18.685Z,2.13
2024-01-12T13:12:45.513Z,1.58
2024-01-12T13:15:13.274Z,1.92
2024-01-12T13:17:44.204Z,1.83
2024-01-12T13:20:12.988Z,2.35
2024-01-12T13:22:43.325Z,1.80
2024-01-12T13:30:08.010Z,1.67
2024-01-12T13:32:38.783Z,2.03
2024-01-12T13:35:06.728Z,1.70
2024-01-12T13:37:36.789Z,1.60
2024-01-12T13:40:04.516Z,1.52
2024-01-12T13:42:31.384Z,1.42
2024-01-12T13:45:03.003Z,1.15
2024-01-12T13:47:31.079Z,1.83
2024-01-12T13:50:03.142Z,1.75
2024-01-12T13:52:30.341Z,1.42
2024-01-12T13:54:57.272Z,1.67
2024-01-12T13:57:26.666Z,1.60
2024-01-12T13:59:53.446Z,2.92
2024-01-12T14:02:20.221Z,2.28
2024-01-12T14:04:53.559Z,2.00
2024-01-12T14:07:27.566Z,5.78
2024-01-12T14:09:55.327Z,2.30
2024-01-12T14:12:24.328Z,1.83
2024-01-12T14:14:51.827Z,2.40
2024-01-12T14:17:19.861Z,1.77
2024-01-12T14:19:47.360Z,2.05
2024-01-12T14:22:14.961Z,2.35
2024-01-12T14:24:54.713Z,2.10
2024-01-12T14:27:25.032Z,2.60
2024-01-12T14:29:55.366Z,2.00
2024-01-12T14:34:49.454Z,1.77
2024-01-12T14:37:16.499Z,2.35
2024-01-12T14:39:43.216Z,1.63
2024-01-12T14:42:09.962Z,2.67
2024-01-12T14:44:36.867Z,2.38
2024-01-12T14:47:03.540Z,2.22
2024-01-12T14:49:30.546Z,2.33
2024-01-12T14:51:57.468Z,2.70
2024-01-12T14:54:24.254Z,2.60
2024-01-12T14:56:50.970Z,3.22
2024-01-12T14:59:17.683Z,2.58
2024-01-12T15:01:44.414Z,2.03
2024-01-12T15:04:18.630Z,1.95
2024-01-12T15:06:46.891Z,2.53
2024-01-12T15:09:14.290Z,2.45
2024-01-12T15:11:41.123Z,1.83
2024-01-12T15:14:07.973Z,1.75
2024-01-12T15:16:34.766Z,2.08
2024-01-12T15:19:01.620Z,2.67
2024-01-12T15:21:28.471Z,2.70
2024-01-12T15:23:55.262Z,1.92
2024-01-12T15:26:22.057Z,1.85
2024-01-12T15:28:48.692Z,1.90
2024-01-12T15:31:15.617Z,2.28
2024-01-12T15:33:43.761Z,1.52
2024-01-12T15:36:11.535Z,1.83
2024-01-12T15:38:38.563Z,0.98
2024-01-12T15:41:05.785Z,2.60
2024-01-12T15:43:32.456Z,1.05
2024-01-12T15:45:59.254Z,1.50
2024-01-12T15:48:26.108Z,1.67
2024-01-12T15:50:52.884Z,1.30
2024-01-12T15:53:19.947Z,1.55
2024-01-12T15:55:46.720Z,1.55
2024-01-12T15:58:13.475Z,0.82
2024-01-12T16:00:40.634Z,0.35
2024-01-12T16:03:07.574Z,2.97
2024-01-12T16:05:34.439Z,1.60
2024-01-12T16:08:02.126Z,2.25
2024-01-12T16:10:29.217Z,0.57
2024-01-12T16:12:58.560Z,1.15
2024-01-12T16:15:25.822Z,0.98
2024-01-12T16:17:53.165Z,1.15
2024-01-12T16:20:20.444Z,1.80
2024-01-12T16:22:47.184Z,1.55
2024-01-12T16:25:13.997Z,1.48
2024-01-12T16:27:40.755Z,3.05
2024-01-12T16:30:08.156Z,0.70
2024-01-12T16:32:35.462Z,1.00
2024-01-12T16:35:02.333Z,1.70
2024-01-12T16:37:29.020Z,2.17
2024-01-12T16:39:55.702Z,1.67
2024-01-12T16:42:22.356Z,1.65
2024-01-12T16:44:51.105Z,0.90
2024-01-12T16:47:19.289Z,0.10
2024-01-12T16:49:46.146Z,1.27
2024-01-12T16:52:12.877Z,1.67
2024-01-12T16:54:41.762Z,2.67
2024-01-12T16:57:08.544Z,1.85
2024-01-12T16:59:35.417Z,1.10
2024-01-12T17:02:02.457Z,2.15
2024-01-12T17:04:30.125Z,3.55
2024-01-12T17:07:00.950Z,2.00
2024-01-12T17:09:29.141Z,5.45
2024-01-12T17:11:57.208Z,2.53
2024-01-12T17:14:24.540Z,1.55
2024-01-12T17:16:51.363Z,2.53
2024-01-12T17:19:18.246Z,1.13
2024-01-12T17:21:45.234Z,1.17
2024-01-12T17:24:14.658Z,2.33
2024-01-12T17:26:42.044Z,1.02
2024-01-12T17:29:08.962Z,0.80
2024-01-12T17:31:35.998Z,1.20
2024-01-12T17:34:02.919Z,3.38
2024-01-12T17:36:29.791Z,1.80
2024-01-12T17:38:56.584Z,2.00
2024-01-12T17:41:24.941Z,2.20
2024-01-12T17:43:52.174Z,1.63
2024-01-12T17:46:19.085Z,1.35
2024-01-12T17:48:45.996Z,2.00
2024-01-12T17:51:16.350Z,1.33
2024-01-12T17:53:44.334Z,2.70
2024-01-12T17:56:12.372Z,2.92
2024-01-12T17:58:39.093Z,1.83
2024-01-12T18:01:05.928Z,2.97
2024-01-12T18:03:32.674Z,2.70
2024-01-12T18:06:03.071Z,2.25
2024-01-12T18:08:29.955Z,68.65
2024-01-12T18:10:56.658Z,90.38
2024-01-12T18:13:23.316Z,11.93
2024-01-12T18:15:49.987Z,2.08
2024-01-12T18:18:16.854Z,5.78
2024-01-12T18:20:43.631Z,2.90
2024-01-12T18:23:10.503Z,2.70
2024-01-12T18:25:37.245Z,4.05
2024-01-12T18:28:04.132Z,4.30
2024-01-12T18:30:30.888Z,6.32
2024-01-12T18:32:57.849Z,3.47
2024-01-12T18:35:24.785Z,2.38
2024-01-12T18:37:51.495Z,1.40
2024-01-12T18:40:18.564Z,4.38
2024-01-12T18:42:45.275Z,2.58
2024-01-12T18:45:12.157Z,5.43
2024-01-12T18:47:39.087Z,3.03
2024-01-12T18:50:07.235Z,5.32
2024-01-12T18:52:34.047Z,2.83
2024-01-12T18:55:00.730Z,3.95
2024-01-12T18:57:27.519Z,4.18
2024-01-12T18:59:54.335Z,3.67
2024-01-12T19:02:21.017Z,3.42
2024-01-12T19:04:47.728Z,5.32
2024-01-12T19:07:14.516Z,6.30
2024-01-12T19:09:41.147Z,4.13
2024-01-12T19:12:07.967Z,4.65
2024-01-12T19:14:35.036Z,2.70
2024-01-12T19:17:01.738Z,3.90
2024-01-12T19:19:28.632Z,2.85
2024-01-12T19:21:55.418Z,3.85
2024-01-12T19:24:22.106Z,3.25
2024-01-12T19:26:49.669Z,2.70
2024-01-12T19:29:16.612Z,3.20
2024-01-12T19:31:43.292Z,5.45
2024-01-12T19:34:11.399Z,4.28
2024-01-12T19:36:44.693Z,6.22
2024-01-12T19:39:11.756Z,4.90
2024-01-12T19:41:38.541Z,2.78
2024-01-12T19:44:05.337Z,1.75
2024-01-12T19:46:31.992Z,3.42
2024-01-12T19:48:58.980Z,4.78
2024-01-12T19:51:27.194Z,3.40
2024-01-12T19:53:54.057Z,5.93
2024-01-12T19:56:23.067Z,7.80
2024-01-12T19:58:51.985Z,4.75
2024-01-12T20:01:18.822Z,3.78
2024-01-12T20:03:45.635Z,3.28
2024-01-12T20:06:12.686Z,4.40
2024-01-12T20:08:39.442Z,2.72
2024-01-12T20:11:07.435Z,3.10
2024-01-12T20:13:34.445Z,3.08
2024-01-12T20:16:02.435Z,11.13
2024-01-12T20:18:29.560Z,8.73
2024-01-12T20:20:56.428Z,7.28
2024-01-12T20:23:23.267Z,5.05
2024-01-12T20:25:51.517Z,1.98
2024-01-12T20:28:18.202Z,6.68
2024-01-12T20:30:44.916Z,9.20
2024-01-12T20:33:11.747Z,6.18
2024-01-12T20:35:38.572Z,10.13
2024-01-12T20:38:05.241Z,3.53
2024-01-12T20:40:31.901Z,3.13
2024-01-12T20:42:58.674Z,9.32
2024-01-12T20:45:25.393Z,10.07
2024-01-12T20:47:52.117Z,7.22
2024-01-12T20:50:18.891Z,5.60
2024-01-12T20:52:45.549Z,6.43
2024-01-12T20:55:12.420Z,4.43
2024-01-12T20:57:39.175Z,7.05
2024-01-12T21:00:06.637Z,3.28
2024-01-12T21:02:33.499Z,5.38
2024-01-12T21:05:00.471Z,4.43
2024-01-12T21:07:27.410Z,5.82
2024-01-12T21:09:54.214Z,4.80
2024-01-12T21:12:21.119Z,3.65
2024-01-12T21:14:48.718Z,3.83
2024-01-12T21:17:15.839Z,5.47
2024-01-12T21:19:43.608Z,4.72
2024-01-12T21:22:11.519Z,3.97
2024-01-12T21:24:38.912Z,4.60
2024-01-12T21:27:06.152Z,6.22
2024-01-12T21:29:33.355Z,4.57
2024-01-12T21:32:00.170Z,5.28
2024-01-12T21:34:27.002Z,4.43
2024-01-12T21:36:54.082Z,5.15
2024-01-12T21:39:22.348Z,5.28
2024-01-12T21:41:49.313Z,5.47
2024-01-12T21:44:16.091Z,4.53
2024-01-12T21:46:42.821Z,5.65
2024-01-12T21:49:10.730Z,4.90
2024-01-12T21:51:37.850Z,3.13
2024-01-12T21:54:04.677Z,4.75
2024-01-12T21:56:31.342Z,4.95
2024-01-12T21:58:57.996Z,7.85
2024-01-12T22:01:24.666Z,5.65
2024-01-12T22:03:51.479Z,4.93
2024-01-12T22:06:18.407Z,3.67
2024-01-12T22:08:45.163Z,4.53
2024-01-12T22:11:11.811Z,4.63
2024-01-12T22:13:38.500Z,5.13
2024-01-12T22:16:05.576Z,3.95
2024-01-12T22:18:32.999Z,5.75
2024-01-12T22:20:59.795Z,4.00
2024-01-12T22:23:26.474Z,3.72
2024-01-12T22:25:53.186Z,3.10
2024-01-12T22:28:19.924Z,4.05
2024-01-12T22:30:46.644Z,4.57
2024-01-12T22:33:13.427Z,3.40
2024-01-12T22:35:41.577Z,3.60
2024-01-12T22:38:08.448Z,4.20
2024-01-12T22:40:35.203Z,3.92
2024-01-12T22:43:01.846Z,8.68
2024-01-12T22:45:28.498Z,3.83
2024-01-12T22:47:55.478Z,4.25
2024-01-12T22:50:22.280Z,5.53
2024-01-12T22:52:48.985Z,3.10
2024-01-12T22:55:15.801Z,2.83
2024-01-12T22:57:42.445Z,4.03
2024-01-12T23:00:25.489Z,5.30
2024-01-12T23:02:53.872Z,4.07
2024-01-12T23:05:20.708Z,4.20
2024-01-12T23:07:47.408Z,3.08
2024-01-12T23:10:15.063Z,3.67
2024-01-12T23:12:41.993Z,3.78
2024-01-12T23:15:12.774Z,3.10
2024-01-12T23:17:43.193Z,3.80
2024-01-12T23:20:16.311Z,3.60
2024-01-12T23:22:44.899Z,4.28
2024-01-12T23:25:12.274Z,4.57
2024-01-12T23:27:40.313Z,4.30
2024-01-12T23:30:07.952Z,3.35
2024-01-12T23:32:36.059Z,2.95
2024-01-12T23:35:03.171Z,51.13
2024-01-12T23:37:30.012Z,221.90
2024-01-12T23:39:57.112Z,372.55
2024-01-12T23:42:23.917Z,749.70
2024-01-12T23:44:50.701Z,351.52
2024-01-12T23:47:18.015Z,129.32
2024-01-12T23:49:45.516Z,187.23
2024-01-12T23:52:12.486Z,142.73
2024-01-12T23:54:39.123Z,128.55
2024-01-12T23:57:06.033Z,114.18
2024-01-12T23:59:33.157Z,101.57
